sensor_id;sensor_type;location;lat;lon;timestamp;P1;durP1;ratioP1;P2;durP2;ratioP2
31732;SDS011;18312;51.486;7.144;2023-08-30T00:01:08;1388.70;;;999.90;;
31732;SDS011;18312;51.486;7.144;2023-08-30T00:03:36;1386.13;;;999.90;;
31732;SDS011;18312;51.486;7.144;2023-08-30T00:06:03;1383.80;;;999.90;;
31732;SDS011;18312;51.486;7.144;2023-08-30T00:08:30;1384.20;;;999.90;;
31732;SDS011;18312;51.486;7.144;2023-08-30T00:10:57;1385.57;;;999.90;;
31732;SDS011;18312;51.486;7.144;2023-08-30T00:13:25;1384.20;;;999.90;;
31732;SDS011;18312;51.486;7.144;2023-08-30T00:15:52;1381.28;;;999.90;;
31732;SDS011;18312;51.486;7.144;2023-08-30T00:18:19;1380.82;;;999.90;;
31732;SDS011;18312;51.486;7.144;2023-08-30T00:20:46;1377.72;;;999.90;;
31732;SDS011;18312;51.486;7.144;2023-08-30T00:23:13;1381.05;;;999.90;;
31732;SDS011;18312;51.486;7.144;2023-08-30T00:25:41;1379.72;;;999.90;;
31732;SDS011;18312;51.486;7.144;2023-08-30T00:28:08;1382.18;;;999.90;;
31732;SDS011;18312;51.486;7.144;2023-08-30T00:30:37;1377.78;;;999.90;;
31732;SDS011;18312;51.486;7.144;2023-08-30T00:33:04;1377.28;;;999.90;;
31732;SDS011;18312;51.486;7.144;2023-08-30T00:35:30;1376.50;;;999.90;;
31732;SDS011;18312;51.486;7.144;2023-08-30T00:37:57;1375.78;;;999.90;;
31732;SDS011;18312;51.486;7.144;2023-08-30T00:40:24;1375.45;;;999.90;;
31732;SDS011;18312;51.486;7.144;2023-08-30T00:42:51;1377.30;;;999.90;;
31732;SDS011;18312;51.486;7.144;2023-08-30T00:45:18;1372.38;;;999.90;;
31732;SDS011;18312;51.486;7.144;2023-08-30T00:47:46;1373.17;;;999.90;;
31732;SDS011;18312;51.486;7.144;2023-08-30T00:50:13;1376.63;;;999.90;;
31732;SDS011;18312;51.486;7.144;2023-08-30T00:52:41;1374.93;;;999.90;;
31732;SDS011;18312;51.486;7.144;2023-08-30T00:55:08;1374.60;;;999.90;;
31732;SDS011;18312;51.486;7.144;2023-08-30T00:57:36;1372.82;;;999.90;;
31732;SDS011;18312;51.486;7.144;2023-08-30T01:00:03;1375.15;;;999.90;;
31732;SDS011;18312;51.486;7.144;2023-08-30T01:02:32;1373.07;;;999.90;;
31732;SDS011;18312;51.486;7.144;2023-08-30T01:05:01;1372.15;;;999.90;;
31732;SDS011;18312;51.486;7.144;2023-08-30T01:07:30;1371.95;;;999.90;;
31732;SDS011;18312;51.486;7.144;2023-08-30T01:09:57;1369.40;;;999.90;;
31732;SDS011;18312;51.486;7.144;2023-08-30T01:12:26;1372.22;;;999.90;;
31732;SDS011;18312;51.486;7.144;2023-08-30T01:15:00;1368.75;;;999.90;;
31732;SDS011;18312;51.486;7.144;2023-08-30T01:17:32;1367.95;;;999.90;;
31732;SDS011;18312;51.486;7.144;2023-08-30T01:20:03;1364.75;;;999.90;;
31732;SDS011;18312;51.486;7.144;2023-08-30T01:22:38;1366.53;;;999.90;;
31732;SDS011;18312;51.486;7.144;2023-08-30T01:25:17;1365.67;;;999.90;;
31732;SDS011;18312;51.486;7.144;2023-08-30T01:27:54;1362.60;;;999.90;;
31732;SDS011;18312;51.486;7.144;2023-08-30T01:30:23;1363.10;;;999.90;;
31732;SDS011;18312;51.486;7.144;2023-08-30T01:32:51;1360.85;;;999.90;;
31732;SDS011;18312;51.486;7.144;2023-08-30T01:35:19;1361.03;;;999.90;;
31732;SDS011;18312;51.486;7.144;2023-08-30T01:37:47;1359.18;;;999.90;;
31732;SDS011;18312;51.486;7.144;2023-08-30T01:40:15;1360.60;;;999.90;;
31732;SDS011;18312;51.486;7.144;2023-08-30T01:42:43;1361.82;;;999.90;;
31732;SDS011;18312;51.486;7.144;2023-08-30T01:45:14;1359.73;;;999.90;;
31732;SDS011;18312;51.486;7.144;2023-08-30T01:47:42;1358.68;;;999.90;;
31732;SDS011;18312;51.486;7.144;2023-08-30T01:50:10;1362.15;;;999.90;;
31732;SDS011;18312;51.486;7.144;2023-08-30T01:52:38;1361.73;;;999.90;;
31732;SDS011;18312;51.486;7.144;2023-08-30T01:55:06;1360.22;;;999.90;;
31732;SDS011;18312;51.486;7.144;2023-08-30T01:57:34;1360.38;;;999.90;;
31732;SDS011;18312;51.486;7.144;2023-08-30T02:00:02;1357.77;;;999.90;;
31732;SDS011;18312;51.486;7.144;2023-08-30T02:02:31;1360.27;;;999.90;;
31732;SDS011;18312;51.486;7.144;2023-08-30T02:04:58;1357.85;;;999.90;;
31732;SDS011;18312;51.486;7.144;2023-08-30T02:07:28;1357.90;;;999.90;;
31732;SDS011;18312;51.486;7.144;2023-08-30T02:10:02;1357.88;;;999.90;;
31732;SDS011;18312;51.486;7.144;2023-08-30T02:12:35;1356.72;;;999.90;;
31732;SDS011;18312;51.486;7.144;2023-08-30T02:15:06;1359.65;;;999.90;;
31732;SDS011;18312;51.486;7.144;2023-08-30T02:17:36;1361.70;;;999.90;;
31732;SDS011;18312;51.486;7.144;2023-08-30T02:20:04;1356.25;;;999.90;;
31732;SDS011;18312;51.486;7.144;2023-08-30T02:22:32;1357.68;;;999.90;;
31732;SDS011;18312;51.486;7.144;2023-08-30T02:24:59;1357.45;;;999.90;;
31732;SDS011;18312;51.486;7.144;2023-08-30T02:27:29;1357.68;;;999.90;;
31732;SDS011;18312;51.486;7.144;2023-08-30T02:29:56;1355.63;;;999.90;;
31732;SDS011;18312;51.486;7.144;2023-08-30T02:32:23;1355.57;;;999.90;;
31732;SDS011;18312;51.486;7.144;2023-08-30T02:34:51;1352.15;;;999.90;;
31732;SDS011;18312;51.486;7.144;2023-08-30T02:37:19;1352.25;;;999.90;;
31732;SDS011;18312;51.486;7.144;2023-08-30T02:39:46;1350.30;;;999.90;;
31732;SDS011;18312;51.486;7.144;2023-08-30T02:42:12;1351.38;;;999.90;;
31732;SDS011;18312;51.486;7.144;2023-08-30T02:44:39;1352.85;;;999.90;;
31732;SDS011;18312;51.486;7.144;2023-08-30T02:47:06;1346.90;;;999.90;;
31732;SDS011;18312;51.486;7.144;2023-08-30T02:49:33;1348.95;;;999.90;;
31732;SDS011;18312;51.486;7.144;2023-08-30T02:52:01;1347.97;;;999.90;;
31732;SDS011;18312;51.486;7.144;2023-08-30T02:54:28;1344.93;;;999.90;;
31732;SDS011;18312;51.486;7.144;2023-08-30T02:56:55;1347.72;;;999.90;;
31732;SDS011;18312;51.486;7.144;2023-08-30T02:59:21;1348.30;;;999.90;;
31732;SDS011;18312;51.486;7.144;2023-08-30T03:01:48;1347.53;;;999.90;;
31732;SDS011;18312;51.486;7.144;2023-08-30T03:04:29;1346.97;;;999.90;;
31732;SDS011;18312;51.486;7.144;2023-08-30T03:06:56;1345.70;;;999.90;;
31732;SDS011;18312;51.486;7.144;2023-08-30T03:09:24;1345.57;;;999.90;;
31732;SDS011;18312;51.486;7.144;2023-08-30T03:11:50;1346.28;;;999.90;;
31732;SDS011;18312;51.486;7.144;2023-08-30T03:14:17;1346.23;;;999.90;;
31732;SDS011;18312;51.486;7.144;2023-08-30T03:16:44;1347.10;;;999.90;;
31732;SDS011;18312;51.486;7.144;2023-08-30T03:19:12;1347.77;;;999.90;;
31732;SDS011;18312;51.486;7.144;2023-08-30T03:21:39;1345.15;;;999.90;;
31732;SDS011;18312;51.486;7.144;2023-08-30T03:24:05;1345.40;;;999.90;;
31732;SDS011;18312;51.486;7.144;2023-08-30T03:26:34;1346.13;;;999.90;;
31732;SDS011;18312;51.486;7.144;2023-08-30T03:29:00;1346.70;;;999.90;;
31732;SDS011;18312;51.486;7.144;2023-08-30T03:31:28;1344.33;;;999.90;;
31732;SDS011;18312;51.486;7.144;2023-08-30T03:33:55;1341.95;;;999.90;;
31732;SDS011;18312;51.486;7.144;2023-08-30T03:36:21;1341.80;;;999.90;;
31732;SDS011;18312;51.486;7.144;2023-08-30T03:38:48;1344.97;;;999.90;;
31732;SDS011;18312;51.486;7.144;2023-08-30T03:41:15;1342.97;;;999.90;;
31732;SDS011;18312;51.486;7.144;2023-08-30T03:43:43;1342.28;;;999.90;;
31732;SDS011;18312;51.486;7.144;2023-08-30T03:46:10;1343.90;;;999.90;;
31732;SDS011;18312;51.486;7.144;2023-08-30T03:48:37;1343.20;;;999.90;;
31732;SDS011;18312;51.486;7.144;2023-08-30T03:51:04;1342.65;;;999.90;;
31732;SDS011;18312;51.486;7.144;2023-08-30T03:53:31;1343.18;;;999.90;;
31732;SDS011;18312;51.486;7.144;2023-08-30T03:55:57;1343.17;;;999.90;;
31732;SDS011;18312;51.486;7.144;2023-08-30T03:58:24;1344.38;;;999.90;;
31732;SDS011;18312;51.486;7.144;2023-08-30T04:00:52;1343.05;;;999.90;;
31732;SDS011;18312;51.486;7.144;2023-08-30T04:03:19;1342.57;;;999.90;;
31732;SDS011;18312;51.486;7.144;2023-08-30T04:05:46;1340.80;;;999.90;;
31732;SDS011;18312;51.486;7.144;2023-08-30T04:08:13;1337.93;;;999.90;;
31732;SDS011;18312;51.486;7.144;2023-08-30T04:10:40;1337.70;;;999.90;;
31732;SDS011;18312;51.486;7.144;2023-08-30T04:13:08;1336.53;;;999.90;;
31732;SDS011;18312;51.486;7.144;2023-08-30T04:15:35;1337.55;;;999.90;;
31732;SDS011;18312;51.486;7.144;2023-08-30T04:18:05;1336.50;;;999.90;;
31732;SDS011;18312;51.486;7.144;2023-08-30T04:20:33;1340.63;;;999.90;;
31732;SDS011;18312;51.486;7.144;2023-08-30T04:23:00;1336.72;;;999.90;;
31732;SDS011;18312;51.486;7.144;2023-08-30T04:25:27;1336.05;;;999.90;;
31732;SDS011;18312;51.486;7.144;2023-08-30T04:27:54;1337.20;;;999.90;;
31732;SDS011;18312;51.486;7.144;2023-08-30T04:30:21;1335.25;;;999.90;;
31732;SDS011;18312;51.486;7.144;2023-08-30T04:32:48;1338.75;;;999.90;;
31732;SDS011;18312;51.486;7.144;2023-08-30T04:35:17;1335.68;;;999.90;;
31732;SDS011;18312;51.486;7.144;2023-08-30T04:37:44;1338.57;;;999.90;;
31732;SDS011;18312;51.486;7.144;2023-08-30T04:40:11;1333.57;;;999.90;;
31732;SDS011;18312;51.486;7.144;2023-08-30T04:42:38;1338.80;;;999.90;;
31732;SDS011;18312;51.486;7.144;2023-08-30T04:45:06;1334.50;;;999.90;;
31732;SDS011;18312;51.486;7.144;2023-08-30T04:47:34;1333.88;;;999.90;;
31732;SDS011;18312;51.486;7.144;2023-08-30T04:50:01;1332.23;;;999.90;;
31732;SDS011;18312;51.486;7.144;2023-08-30T04:52:30;1336.75;;;999.90;;
31732;SDS011;18312;51.486;7.144;2023-08-30T04:54:57;1334.93;;;999.90;;
31732;SDS011;18312;51.486;7.144;2023-08-30T04:57:24;1337.15;;;999.90;;
31732;SDS011;18312;51.486;7.144;2023-08-30T04:59:51;1334.35;;;999.90;;
31732;SDS011;18312;51.486;7.144;2023-08-30T05:02:18;1334.50;;;999.90;;
31732;SDS011;18312;51.486;7.144;2023-08-30T05:04:44;1338.80;;;999.90;;
31732;SDS011;18312;51.486;7.144;2023-08-30T05:07:12;1335.67;;;999.90;;
31732;SDS011;18312;51.486;7.144;2023-08-30T05:09:40;1336.55;;;999.90;;
31732;SDS011;18312;51.486;7.144;2023-08-30T05:12:07;1333.00;;;999.90;;
31732;SDS011;18312;51.486;7.144;2023-08-30T05:14:34;1337.50;;;999.90;;
31732;SDS011;18312;51.486;7.144;2023-08-30T05:17:01;1335.45;;;999.90;;
31732;SDS011;18312;51.486;7.144;2023-08-30T05:19:28;1336.63;;;999.90;;
31732;SDS011;18312;51.486;7.144;2023-08-30T05:21:55;1338.03;;;999.90;;
31732;SDS011;18312;51.486;7.144;2023-08-30T05:24:22;1335.35;;;999.90;;
31732;SDS011;18312;51.486;7.144;2023-08-30T05:26:50;1336.63;;;999.90;;
31732;SDS011;18312;51.486;7.144;2023-08-30T05:29:17;1335.37;;;999.90;;
31732;SDS011;18312;51.486;7.144;2023-08-30T05:31:43;1337.22;;;999.90;;
31732;SDS011;18312;51.486;7.144;2023-08-30T05:34:10;1340.75;;;999.90;;
31732;SDS011;18312;51.486;7.144;2023-08-30T05:36:37;1337.43;;;999.90;;
31732;SDS011;18312;51.486;7.144;2023-08-30T05:39:04;1339.88;;;999.90;;
31732;SDS011;18312;51.486;7.144;2023-08-30T05:41:31;1341.78;;;999.90;;
31732;SDS011;18312;51.486;7.144;2023-08-30T05:44:00;1342.25;;;999.90;;
31732;SDS011;18312;51.486;7.144;2023-08-30T05:46:27;1340.75;;;999.90;;
31732;SDS011;18312;51.486;7.144;2023-08-30T05:48:54;1342.67;;;999.90;;
31732;SDS011;18312;51.486;7.144;2023-08-30T05:51:21;1344.50;;;999.90;;
31732;SDS011;18312;51.486;7.144;2023-08-30T05:53:47;1344.37;;;999.90;;
31732;SDS011;18312;51.486;7.144;2023-08-30T05:56:14;1345.78;;;999.90;;
31732;SDS011;18312;51.486;7.144;2023-08-30T05:58:42;1345.80;;;999.90;;
31732;SDS011;18312;51.486;7.144;2023-08-30T06:01:10;1347.43;;;999.90;;
31732;SDS011;18312;51.486;7.144;2023-08-30T06:03:37;1348.47;;;999.90;;
31732;SDS011;18312;51.486;7.144;2023-08-30T06:06:03;1345.83;;;999.90;;
31732;SDS011;18312;51.486;7.144;2023-08-30T06:08:31;1347.57;;;999.90;;
31732;SDS011;18312;51.486;7.144;2023-08-30T06:10:57;1350.53;;;999.90;;
31732;SDS011;18312;51.486;7.144;2023-08-30T06:13:24;1350.70;;;999.90;;
31732;SDS011;18312;51.486;7.144;2023-08-30T06:15:51;1350.77;;;999.90;;
31732;SDS011;18312;51.486;7.144;2023-08-30T06:18:20;1353.80;;;999.90;;
31732;SDS011;18312;51.486;7.144;2023-08-30T06:20:47;1356.57;;;999.90;;
31732;SDS011;18312;51.486;7.144;2023-08-30T06:23:14;1353.80;;;999.90;;
31732;SDS011;18312;51.486;7.144;2023-08-30T06:25:41;1356.03;;;999.90;;
31732;SDS011;18312;51.486;7.144;2023-08-30T06:28:08;1358.03;;;999.90;;
31732;SDS011;18312;51.486;7.144;2023-08-30T06:30:35;1362.57;;;999.90;;
31732;SDS011;18312;51.486;7.144;2023-08-30T06:33:03;1366.80;;;999.90;;
31732;SDS011;18312;51.486;7.144;2023-08-30T06:35:31;1368.55;;;999.90;;
31732;SDS011;18312;51.486;7.144;2023-08-30T06:37:58;1370.53;;;999.90;;
31732;SDS011;18312;51.486;7.144;2023-08-30T06:40:25;1370.22;;;999.90;;
31732;SDS011;18312;51.486;7.144;2023-08-30T06:42:52;1375.80;;;999.90;;
31732;SDS011;18312;51.486;7.144;2023-08-30T06:45:18;1371.82;;;999.90;;
31732;SDS011;18312;51.486;7.144;2023-08-30T06:47:45;1376.60;;;999.90;;
31732;SDS011;18312;51.486;7.144;2023-08-30T06:50:14;1376.20;;;999.90;;
31732;SDS011;18312;51.486;7.144;2023-08-30T06:52:42;1380.82;;;999.90;;
31732;SDS011;18312;51.486;7.144;2023-08-30T06:55:09;1378.63;;;999.90;;
31732;SDS011;18312;51.486;7.144;2023-08-30T06:57:35;1381.57;;;999.90;;
31732;SDS011;18312;51.486;7.144;2023-08-30T07:00:02;1382.88;;;999.90;;
31732;SDS011;18312;51.486;7.144;2023-08-30T07:02:32;1383.90;;;999.90;;
31732;SDS011;18312;51.486;7.144;2023-08-30T07:05:00;1386.03;;;999.90;;
31732;SDS011;18312;51.486;7.144;2023-08-30T07:07:29;1388.10;;;999.90;;
31732;SDS011;18312;51.486;7.144;2023-08-30T07:09:57;1385.00;;;999.90;;
31732;SDS011;18312;51.486;7.144;2023-08-30T07:12:25;1388.13;;;999.90;;
31732;SDS011;18312;51.486;7.144;2023-08-30T07:14:51;1388.33;;;999.90;;
31732;SDS011;18312;51.486;7.144;2023-08-30T07:17:19;1390.50;;;999.90;;
31732;SDS011;18312;51.486;7.144;2023-08-30T07:19:45;1392.78;;;999.90;;
31732;SDS011;18312;51.486;7.144;2023-08-30T07:22:12;1394.03;;;999.90;;
31732;SDS011;18312;51.486;7.144;2023-08-30T07:24:41;1395.70;;;999.90;;
31732;SDS011;18312;51.486;7.144;2023-08-30T07:27:09;1398.55;;;999.90;;
31732;SDS011;18312;51.486;7.144;2023-08-30T07:29:36;1398.65;;;999.90;;
31732;SDS011;18312;51.486;7.144;2023-08-30T07:32:03;1402.50;;;999.90;;
31732;SDS011;18312;51.486;7.144;2023-08-30T07:34:30;1404.68;;;999.90;;
31732;SDS011;18312;51.486;7.144;2023-08-30T07:36:57;1402.30;;;999.90;;
31732;SDS011;18312;51.486;7.144;2023-08-30T07:39:23;1404.63;;;999.90;;
31732;SDS011;18312;51.486;7.144;2023-08-30T07:41:50;1404.03;;;999.90;;
31732;SDS011;18312;51.486;7.144;2023-08-30T07:44:18;1402.75;;;999.90;;
31732;SDS011;18312;51.486;7.144;2023-08-30T07:46:45;1407.28;;;999.90;;
31732;SDS011;18312;51.486;7.144;2023-08-30T07:49:13;1410.45;;;999.90;;
31732;SDS011;18312;51.486;7.144;2023-08-30T07:51:42;1409.13;;;999.90;;
31732;SDS011;18312;51.486;7.144;2023-08-30T07:54:12;1410.47;;;999.90;;
31732;SDS011;18312;51.486;7.144;2023-08-30T07:56:38;1412.47;;;999.90;;
31732;SDS011;18312;51.486;7.144;2023-08-30T07:59:05;1420.53;;;999.90;;
31732;SDS011;18312;51.486;7.144;2023-08-30T08:01:33;1416.80;;;999.90;;
31732;SDS011;18312;51.486;7.144;2023-08-30T08:04:00;1414.75;;;999.90;;
31732;SDS011;18312;51.486;7.144;2023-08-30T08:06:27;1416.18;;;999.90;;
31732;SDS011;18312;51.486;7.144;2023-08-30T08:08:54;1415.68;;;999.90;;
31732;SDS011;18312;51.486;7.144;2023-08-30T08:11:21;1420.10;;;999.90;;
31732;SDS011;18312;51.486;7.144;2023-08-30T08:13:47;1420.00;;;999.90;;
31732;SDS011;18312;51.486;7.144;2023-08-30T08:16:14;1420.15;;;999.90;;
31732;SDS011;18312;51.486;7.144;2023-08-30T08:18:42;1419.03;;;999.90;;
31732;SDS011;18312;51.486;7.144;2023-08-30T08:21:09;1422.78;;;999.90;;
31732;SDS011;18312;51.486;7.144;2023-08-30T08:23:36;1421.30;;;999.90;;
31732;SDS011;18312;51.486;7.144;2023-08-30T08:26:02;1426.40;;;999.90;;
31732;SDS011;18312;51.486;7.144;2023-08-30T08:28:29;1428.35;;;999.90;;
31732;SDS011;18312;51.486;7.144;2023-08-30T08:30:56;1425.60;;;999.90;;
31732;SDS011;18312;51.486;7.144;2023-08-30T08:33:22;1426.50;;;999.90;;
31732;SDS011;18312;51.486;7.144;2023-08-30T08:35:51;1426.75;;;999.90;;
31732;SDS011;18312;51.486;7.144;2023-08-30T08:38:17;1432.28;;;999.90;;
31732;SDS011;18312;51.486;7.144;2023-08-30T08:40:44;1435.83;;;999.90;;
31732;SDS011;18312;51.486;7.144;2023-08-30T08:43:11;1436.35;;;999.90;;
31732;SDS011;18312;51.486;7.144;2023-08-30T08:45:38;1437.93;;;999.90;;
31732;SDS011;18312;51.486;7.144;2023-08-30T08:48:05;1439.93;;;999.90;;
31732;SDS011;18312;51.486;7.144;2023-08-30T08:50:32;1442.35;;;999.90;;
31732;SDS011;18312;51.486;7.144;2023-08-30T08:53:01;1441.03;;;999.90;;
31732;SDS011;18312;51.486;7.144;2023-08-30T08:55:29;1441.07;;;999.90;;
31732;SDS011;18312;51.486;7.144;2023-08-30T08:57:56;1443.57;;;999.90;;
31732;SDS011;18312;51.486;7.144;2023-08-30T09:00:23;1440.38;;;999.90;;
31732;SDS011;18312;51.486;7.144;2023-08-30T09:02:50;1440.15;;;999.90;;
31732;SDS011;18312;51.486;7.144;2023-08-30T09:05:18;1437.78;;;999.90;;
31732;SDS011;18312;51.486;7.144;2023-08-30T09:07:46;1437.30;;;999.90;;
31732;SDS011;18312;51.486;7.144;2023-08-30T09:10:15;1435.17;;;999.90;;
31732;SDS011;18312;51.486;7.144;2023-08-30T09:12:42;1437.85;;;999.90;;
31732;SDS011;18312;51.486;7.144;2023-08-30T09:15:08;1440.50;;;999.90;;
31732;SDS011;18312;51.486;7.144;2023-08-30T09:17:36;1438.50;;;999.90;;
31732;SDS011;18312;51.486;7.144;2023-08-30T09:20:06;1441.20;;;999.90;;
31732;SDS011;18312;51.486;7.144;2023-08-30T09:22:37;1444.30;;;999.90;;
31732;SDS011;18312;51.486;7.144;2023-08-30T09:25:05;1446.93;;;999.90;;
31732;SDS011;18312;51.486;7.144;2023-08-30T09:27:34;1443.78;;;999.90;;
31732;SDS011;18312;51.486;7.144;2023-08-30T09:30:01;1443.90;;;999.90;;
31732;SDS011;18312;51.486;7.144;2023-08-30T09:32:30;1443.28;;;999.90;;
31732;SDS011;18312;51.486;7.144;2023-08-30T09:34:57;1444.90;;;999.90;;
31732;SDS011;18312;51.486;7.144;2023-08-30T09:37:23;1443.43;;;999.90;;
31732;SDS011;18312;51.486;7.144;2023-08-30T09:39:51;1445.85;;;999.90;;
31732;SDS011;18312;51.486;7.144;2023-08-30T09:42:18;1448.47;;;999.90;;
31732;SDS011;18312;51.486;7.144;2023-08-30T09:44:46;1452.78;;;999.90;;
31732;SDS011;18312;51.486;7.144;2023-08-30T09:47:13;1449.70;;;999.90;;
31732;SDS011;18312;51.486;7.144;2023-08-30T09:49:42;1449.68;;;999.90;;
31732;SDS011;18312;51.486;7.144;2023-08-30T09:52:10;1448.50;;;999.90;;
31732;SDS011;18312;51.486;7.144;2023-08-30T09:54:41;1446.87;;;999.90;;
31732;SDS011;18312;51.486;7.144;2023-08-30T09:57:09;1443.25;;;999.90;;
31732;SDS011;18312;51.486;7.144;2023-08-30T09:59:36;1444.30;;;999.90;;
31732;SDS011;18312;51.486;7.144;2023-08-30T10:02:06;1444.75;;;999.90;;
31732;SDS011;18312;51.486;7.144;2023-08-30T10:04:34;1438.75;;;999.90;;
31732;SDS011;18312;51.486;7.144;2023-08-30T10:07:03;1439.13;;;999.90;;
31732;SDS011;18312;51.486;7.144;2023-08-30T10:09:31;1435.90;;;999.90;;
31732;SDS011;18312;51.486;7.144;2023-08-30T10:11:59;1433.13;;;999.90;;
31732;SDS011;18312;51.486;7.144;2023-08-30T10:14:28;1430.70;;;999.90;;
31732;SDS011;18312;51.486;7.144;2023-08-30T10:16:58;1428.83;;;999.90;;
31732;SDS011;18312;51.486;7.144;2023-08-30T10:19:29;1426.20;;;999.90;;
31732;SDS011;18312;51.486;7.144;2023-08-30T10:22:00;1423.78;;;999.90;;
31732;SDS011;18312;51.486;7.144;2023-08-30T10:24:28;1420.60;;;999.90;;
31732;SDS011;18312;51.486;7.144;2023-08-30T10:26:58;1419.55;;;999.90;;
31732;SDS011;18312;51.486;7.144;2023-08-30T10:29:26;1417.30;;;999.90;;
31732;SDS011;18312;51.486;7.144;2023-08-30T10:31:54;1412.97;;;999.90;;
31732;SDS011;18312;51.486;7.144;2023-08-30T10:34:21;1414.22;;;999.90;;
31732;SDS011;18312;51.486;7.144;2023-08-30T10:36:58;1411.23;;;999.90;;
31732;SDS011;18312;51.486;7.144;2023-08-30T10:39:27;1409.90;;;999.90;;
31732;SDS011;18312;51.486;7.144;2023-08-30T10:42:00;1406.57;;;999.90;;
31732;SDS011;18312;51.486;7.144;2023-08-30T10:44:33;1407.15;;;999.90;;
31732;SDS011;18312;51.486;7.144;2023-08-30T10:47:01;1408.47;;;999.90;;
31732;SDS011;18312;51.486;7.144;2023-08-30T10:49:29;1405.22;;;999.90;;
31732;SDS011;18312;51.486;7.144;2023-08-30T10:52:06;1402.97;;;999.90;;
31732;SDS011;18312;51.486;7.144;2023-08-30T10:54:38;1406.13;;;999.90;;
31732;SDS011;18312;51.486;7.144;2023-08-30T10:57:05;1404.63;;;999.90;;
31732;SDS011;18312;51.486;7.144;2023-08-30T10:59:38;1403.75;;;999.90;;
31732;SDS011;18312;51.486;7.144;2023-08-30T11:02:05;1399.97;;;999.90;;
31732;SDS011;18312;51.486;7.144;2023-08-30T11:04:32;1403.60;;;999.90;;
31732;SDS011;18312;51.486;7.144;2023-08-30T11:06:59;1404.47;;;999.90;;
31732;SDS011;18312;51.486;7.144;2023-08-30T11:09:28;1399.53;;;999.90;;
31732;SDS011;18312;51.486;7.144;2023-08-30T11:11:55;1401.00;;;999.90;;
31732;SDS011;18312;51.486;7.144;2023-08-30T11:14:21;1407.28;;;999.90;;
31732;SDS011;18312;51.486;7.144;2023-08-30T11:16:48;1403.28;;;999.90;;
31732;SDS011;18312;51.486;7.144;2023-08-30T11:19:15;1403.15;;;999.90;;
31732;SDS011;18312;51.486;7.144;2023-08-30T11:21:43;1402.43;;;999.90;;
31732;SDS011;18312;51.486;7.144;2023-08-30T11:24:11;1402.57;;;999.90;;
31732;SDS011;18312;51.486;7.144;2023-08-30T11:26:39;1395.88;;;999.90;;
31732;SDS011;18312;51.486;7.144;2023-08-30T11:29:06;1395.45;;;999.90;;
31732;SDS011;18312;51.486;7.144;2023-08-30T11:31:33;1394.15;;;999.90;;
31732;SDS011;18312;51.486;7.144;2023-08-30T11:34:01;1394.82;;;999.90;;
31732;SDS011;18312;51.486;7.144;2023-08-30T11:36:28;1393.80;;;999.90;;
31732;SDS011;18312;51.486;7.144;2023-08-30T11:38:56;1393.35;;;999.90;;
31732;SDS011;18312;51.486;7.144;2023-08-30T11:41:23;1393.35;;;999.90;;
31732;SDS011;18312;51.486;7.144;2023-08-30T11:43:52;1392.00;;;999.90;;
31732;SDS011;18312;51.486;7.144;2023-08-30T11:46:20;1391.57;;;999.90;;
31732;SDS011;18312;51.486;7.144;2023-08-30T11:48:47;1389.53;;;999.90;;
31732;SDS011;18312;51.486;7.144;2023-08-30T11:51:16;1390.32;;;999.90;;
31732;SDS011;18312;51.486;7.144;2023-08-30T11:53:44;1391.65;;;999.90;;
31732;SDS011;18312;51.486;7.144;2023-08-30T11:56:11;1393.57;;;999.90;;
31732;SDS011;18312;51.486;7.144;2023-08-30T11:58:38;1393.68;;;999.90;;
31732;SDS011;18312;51.486;7.144;2023-08-30T12:01:06;1393.80;;;999.90;;
31732;SDS011;18312;51.486;7.144;2023-08-30T12:03:34;1394.07;;;999.90;;
31732;SDS011;18312;51.486;7.144;2023-08-30T12:06:01;1392.73;;;999.90;;
31732;SDS011;18312;51.486;7.144;2023-08-30T12:08:28;1395.60;;;999.90;;
31732;SDS011;18312;51.486;7.144;2023-08-30T12:10:56;1390.68;;;999.90;;
31732;SDS011;18312;51.486;7.144;2023-08-30T12:13:24;1394.05;;;999.90;;
31732;SDS011;18312;51.486;7.144;2023-08-30T12:15:51;1391.18;;;999.90;;
31732;SDS011;18312;51.486;7.144;2023-08-30T12:18:21;1394.03;;;999.90;;
31732;SDS011;18312;51.486;7.144;2023-08-30T12:20:52;1395.45;;;999.90;;
31732;SDS011;18312;51.486;7.144;2023-08-30T12:23:20;1395.13;;;999.90;;
31732;SDS011;18312;51.486;7.144;2023-08-30T12:25:57;1393.75;;;999.90;;
31732;SDS011;18312;51.486;7.144;2023-08-30T12:28:29;1392.43;;;999.90;;
31732;SDS011;18312;51.486;7.144;2023-08-30T12:31:04;1392.82;;;999.90;;
31732;SDS011;18312;51.486;7.144;2023-08-30T12:33:36;1394.65;;;999.90;;
31732;SDS011;18312;51.486;7.144;2023-08-30T12:36:05;1392.45;;;999.90;;
31732;SDS011;18312;51.486;7.144;2023-08-30T12:38:32;1392.63;;;999.90;;
31732;SDS011;18312;51.486;7.144;2023-08-30T12:40:59;1391.93;;;999.90;;
31732;SDS011;18312;51.486;7.144;2023-08-30T12:43:25;1391.03;;;999.90;;
31732;SDS011;18312;51.486;7.144;2023-08-30T12:45:52;1390.67;;;999.90;;
31732;SDS011;18312;51.486;7.144;2023-08-30T12:48:19;1394.88;;;999.90;;
31732;SDS011;18312;51.486;7.144;2023-08-30T12:50:47;1396.18;;;999.90;;
31732;SDS011;18312;51.486;7.144;2023-08-30T12:53:14;1394.95;;;999.90;;
31732;SDS011;18312;51.486;7.144;2023-08-30T12:55:42;1395.68;;;999.90;;
31732;SDS011;18312;51.486;7.144;2023-08-30T12:58:09;1394.65;;;999.90;;
31732;SDS011;18312;51.486;7.144;2023-08-30T13:00:36;1395.68;;;999.90;;
31732;SDS011;18312;51.486;7.144;2023-08-30T13:03:03;1397.03;;;999.90;;
31732;SDS011;18312;51.486;7.144;2023-08-30T13:05:31;1398.68;;;999.90;;
31732;SDS011;18312;51.486;7.144;2023-08-30T13:07:59;1400.72;;;999.90;;
31732;SDS011;18312;51.486;7.144;2023-08-30T13:10:27;1401.10;;;999.90;;
31732;SDS011;18312;51.486;7.144;2023-08-30T13:12:54;1402.63;;;999.90;;
31732;SDS011;18312;51.486;7.144;2023-08-30T13:15:22;1402.70;;;999.90;;
31732;SDS011;18312;51.486;7.144;2023-08-30T13:17:49;1402.05;;;999.90;;
31732;SDS011;18312;51.486;7.144;2023-08-30T13:20:16;1400.63;;;999.90;;
31732;SDS011;18312;51.486;7.144;2023-08-30T13:22:42;1397.93;;;999.90;;
31732;SDS011;18312;51.486;7.144;2023-08-30T13:25:11;1398.93;;;999.90;;
31732;SDS011;18312;51.486;7.144;2023-08-30T13:27:37;1394.18;;;999.90;;
31732;SDS011;18312;51.486;7.144;2023-08-30T13:30:05;1394.03;;;999.90;;
31732;SDS011;18312;51.486;7.144;2023-08-30T13:32:32;1390.93;;;999.90;;
31732;SDS011;18312;51.486;7.144;2023-08-30T13:35:00;1392.25;;;999.90;;
31732;SDS011;18312;51.486;7.144;2023-08-30T13:37:27;1392.07;;;999.90;;
31732;SDS011;18312;51.486;7.144;2023-08-30T13:40:00;1390.30;;;999.90;;
31732;SDS011;18312;51.486;7.144;2023-08-30T13:42:32;1391.85;;;999.90;;
31732;SDS011;18312;51.486;7.144;2023-08-30T13:44:59;1391.93;;;999.90;;
31732;SDS011;18312;51.486;7.144;2023-08-30T13:47:25;1392.88;;;999.90;;